• Join FlightAware (Why Join?)
  • Login
  • US Flag 
12:50AM EDT


 

Airport Tracker/Info


-or-


 

Live Flight TrackerFlight Track Log ✈ UPS1125 ✈ 05-Jun-2014 ✈ KJFK - KRFD

Flight Track Log - Related Links

Times and Time Zones

All times are in EDT time to prevent confusion due to time zone crossing. See the UPS1125 flight status page for this flight to view local times or setup timezone preferences in your user account.

Time Position Orientation Groundspeed Altitude Reporting Facility
EDT Latitude Longitude Course Direction KTS MPH feet Rate Location/Type
10:56PM 40.5602 -73.7427 109° East 305 351 10,800  Level FlightAware ADS-B (KSNC)
10:57PM 40.5529 -73.7146 109° East 310 357 11,600 3,000 Climbing FlightAware ADS-B (KWWD)
10:57PM 40.5483 -73.6967 108° East 313 360 12,100 2,640 Climbing FlightAware ADS-B (KWWD)
10:57PM 40.5434 -73.6713 96° East 320 368 12,700 2,700 Climbing FlightAware ADS-B (KSNC)
10:57PM 40.5568 -73.6149 89° East 321 369 14,100 2,880 Climbing FlightAware ADS-B (KWWD)
10:58PM 40.5621 -73.6054 53° Northeast 322 371 14,400 2,700 Climbing FlightAware ADS-B (KPHL)
10:58PM 40.5882 -73.5605 48° Northeast 329 379 15,800 2,520 Climbing FlightAware ADS-B (KPHL)
10:58PM 40.6074 -73.5406 27° Northeast 328 377 16,300 1,680 Climbing FlightAware ADS-B (KSNC)
10:58PM 40.6201 -73.5338 14° North 332 382 16,500 900 Climbing FlightAware ADS-B (KSNC)
10:59PM 40.6355 -73.5304 46° Northeast 329 379 16,600 900 Climbing FlightAware ADS-B (KWWD)
10:59PM 40.6541 -73.5310 355° North 343 395 16,800 900 Climbing FlightAware ADS-B (KSNC)
10:59PM 40.6658 -73.5329 352° North 348 400 16,900 600 Climbing FlightAware ADS-B (KSNC)
10:59PM 40.6996 -73.5457 338° Northwest 353 406 17,100 180 Climbing FlightAware ADS-B (KSNC)
11:00PM 40.7459 -73.5713 337° Northwest 373 429 17,100  Level FlightAware ADS-B (KSNC)
11:00PM 40.8121 -73.6085 337° Northwest 379 436 17,100  Level FlightAware ADS-B (KSNC)
11:01PM 40.8573 -73.6336 337° Northwest 383 441 17,100 1,320 Level FlightAware ADS-B (KSNC)
11:02PM 40.9325 -73.6756 337° Northwest 384 442 18,800 2,220 Climbing FlightAware ADS-B (KSNC)
11:02PM 40.9908 -73.7096 330° Northwest 384 442 20,100 2,160 Climbing FlightAware ADS-B (KSNC)
11:03PM 41.0191 -73.7406 311° West 380 437 20,900 2,100 Climbing FlightAware ADS-B (KSNC)
11:03PM 41.0338 -73.7709 291° West 379 436 21,500 1,680 Climbing FlightAware ADS-B (KSNC)
11:03PM 41.0429 -73.8155 273° West 383 441 21,900 420 Climbing FlightAware ADS-B (KWWD)
11:04PM 41.0380 -73.9259 265° West 386 444 22,000 960 Climbing FlightAware ADS-B (KWWD)
11:05PM 41.0314 -74.0280 265° West 391 450 23,400 2,160 Climbing FlightAware ADS-B (KSNC)
11:05PM 41.0262 -74.1099 265° West 400 460 24,800 2,400 Climbing FlightAware ADS-B (KWWD)
11:06PM 41.0200 -74.2100 265° West 405 466 26,400 2,220 Climbing FlightAware ADS-B (KWWD)
11:07PM 41.0142 -74.3005 265° West 412 474 27,700 1,980 Climbing FlightAware ADS-B (KWWD)
11:07PM 41.0087 -74.3847 265° West 418 481 28,700 1,740 Climbing FlightAware ADS-B (KWWD)
11:08PM 41.0017 -74.4925 265° West 426 490 29,900 2,040 Climbing FlightAware ADS-B (KPHL)
11:09PM 40.9953 -74.5909 265° West 417 480 31,500 1,620 Climbing FlightAware ADS-B (KWWD)
11:09PM 40.9892 -74.6848 265° West 411 473 32,000 360 Climbing FlightAware ADS-B (KPHL)
11:10PM 40.9827 -74.7824 265° West 410 472 32,000  Level FlightAware ADS-B (KWWD)
11:10PM 40.9771 -74.8646 265° West 414 476 32,000  Level FlightAware ADS-B (KWWD)
11:11PM 40.9738 -74.9120 263° West 415 478 32,000  Level FlightAware ADS-B (KWWD)
11:11PM 40.9618 -74.9892 254° West 415 478 32,000  Level FlightAware ADS-B (KWWD)
11:12PM 40.9371 -75.0843 251° West 412 474 32,000  Level FlightAware ADS-B (KWWD)
11:12PM 40.9166 -75.1624 253° West 413 475 32,000  Level FlightAware ADS-B (KPHL)
11:13PM 40.8998 -75.2400 255° West 413 475 32,000  Level FlightAware ADS-B (KPHL)
11:13PM 40.8917 -75.2796 256° West 412 474 32,000  Level FlightAware ADS-B (KWWD)
11:14PM 40.8768 -75.3518 256° West 411 473 32,000  Level FlightAware ADS-B (KWWD)
11:14PM 40.8559 -75.4493 254° West 411 473 32,000  Level FlightAware ADS-B (KWWD)
11:15PM 40.8329 -75.5436 253° West 411 473 32,000  Level FlightAware ADS-B (KWWD)
11:16PM 40.8091 -75.6428 254° West 410 472 32,000  Level FlightAware ADS-B (KWWD)
11:16PM 40.7870 -75.7357 254° West 408 470 32,000  Level FlightAware ADS-B (KWWD)
11:17PM 40.7760 -75.7810 253° West 410 472 32,000  Level FlightAware ADS-B
11:17PM 40.7693 -75.8094 254° West 405 466 32,000  Level FlightAware ADS-B (KWWD)
11:17PM 40.7600 -75.8490 253° West 406 467 32,000  Level FlightAware ADS-B
11:17PM 40.7526 -75.8793 254° West 402 463 32,000  Level FlightAware ADS-B (KWWD)
11:18PM 40.7302 -75.9725 253° West 400 460 32,000  Level FlightAware ADS-B (KWWD)
11:18PM 40.7130 -76.0437 254° West 401 461 32,000  Level FlightAware ADS-B (KWWD)
11:19PM 40.7080 -76.0620 253° West 404 465 32,000  Level FlightAware ADS-B
11:19PM 40.6970 -76.1320 264° West 398 458 32,000  Level FlightAware ADS-B
11:19PM 40.6960 -76.1790 274° West 401 461 32,000  Level FlightAware ADS-B
11:20PM 40.6996 -76.2112 279° West 404 465 32,000  Level FlightAware ADS-B (KWWD)
11:20PM 40.7060 -76.2500 283° West 410 472 32,000  Level FlightAware ADS-B
11:20PM 40.7166 -76.3110 282° West 412 474 32,000  Level FlightAware ADS-B (KWWD)
11:20PM 40.7190 -76.3220 284° West 415 478 32,000  Level FlightAware ADS-B
11:21PM 40.7350 -76.4140 284° West 419 482 32,000  Level FlightAware ADS-B
11:21PM 40.7424 -76.4586 282° West 416 479 32,000 13,320 Level FlightAware ADS-B (KWWD)
11:22PM 40.7500 -76.5000 284° West 418 481 40,000  Climbing FlightAware ADS-B
11:22PM 40.7592 -76.5547 282° West 417 480 32,000 -10,020 Descending FlightAware ADS-B (KWWD)
11:22PM 40.7710 -76.6210 283° West 419 482 32,000  Level FlightAware ADS-B
11:23PM 40.7840 -76.6950 283° West 418 481 32,000  Level FlightAware ADS-B
11:24PM 40.8084 -76.8404 282° West 412 474 32,000  Level FlightAware ADS-B (KWWD)
11:24PM 40.8227 -76.9239 282° West 412 474 32,000  Level FlightAware ADS-B (KWWD)
11:25PM 40.8409 -77.0306 282° West 410 472 32,000  Level FlightAware ADS-B (KWWD)
11:26PM 40.8574 -77.1278 281° West 408 470 32,000  Level FlightAware ADS-B (KWWD)
11:26PM 40.8715 -77.2114 281° West 406 467 32,000  Level FlightAware ADS-B (KWWD)
11:28PM 40.9021 -77.3946 281° West 406 467 32,000  Level FlightAware ADS-B (KWWD)
11:28PM 40.9158 -77.4770 281° West 406 467 32,000  Level FlightAware ADS-B (KWWD)
11:28PM 40.9215 -77.5117 283° West 408 470 32,000  Level FlightAware ADS-B (CYYZ)
11:29PM 40.9306 -77.5670 282° West 410 472 32,000  Level FlightAware ADS-B (KWWD)
11:29PM 40.9341 -77.5886 283° West 411 473 32,000  Level FlightAware ADS-B (CYYZ)
11:29PM 40.9464 -77.6636 283° West 413 475 32,000  Level FlightAware ADS-B (CYYZ)
11:30PM 40.9580 -77.7354 283° West 413 475 32,000  Level FlightAware ADS-B (CYYZ)
11:30PM 40.9627 -77.7641 282° West 413 475 32,000  Level FlightAware ADS-B (KWWD)
11:30PM 40.9702 -77.8106 282° West 412 474 32,000  Level FlightAware ADS-B (CYYZ)
11:31PM 40.9751 -77.8412 282° West 412 474 32,000  Level FlightAware ADS-B (KWWD)
11:31PM 40.9824 -77.8867 282° West 411 473 32,000  Level FlightAware ADS-B (CYYZ)
11:31PM 40.9940 -77.9602 282° West 411 473 32,000  Level FlightAware ADS-B (CYYZ)
11:32PM 40.9983 -77.9870 282° West 413 475 32,000  Level FlightAware ADS-B (KWWD)
11:32PM 41.0058 -78.0345 282° West 412 474 32,000  Level FlightAware ADS-B (CYYZ)
11:32PM 41.0168 -78.1041 282° West 414 476 32,000  Level FlightAware ADS-B (CYYZ)
11:33PM 41.0286 -78.1794 282° West 416 479 32,000  Level FlightAware ADS-B (CYYZ)
11:33PM 41.0411 -78.2590 282° West 416 479 32,000  Level FlightAware ADS-B (CYYZ)
11:34PM 41.0529 -78.3341 282° West 416 479 32,000  Level FlightAware ADS-B (CYYZ)
11:34PM 41.0538 -78.3401 282° West 417 480 32,000  Level FlightAware ADS-B (KWWD)
11:34PM 41.0644 -78.4081 282° West 416 479 32,000  Level FlightAware ADS-B (CYYZ)
11:35PM 41.0695 -78.4401 282° West 417 480 32,000  Level FlightAware ADS-B (KWWD)
11:35PM 41.0760 -78.4821 282° West 416 479 32,000  Level FlightAware ADS-B (CYYZ)
11:35PM 41.0878 -78.5581 282° West 416 479 32,000  Level FlightAware ADS-B (CYYZ)
11:36PM 41.0887 -78.5641 282° West 417 480 32,000  Level FlightAware ADS-B (KWWD)
11:36PM 41.0997 -78.6347 282° West 417 480 32,000  Level FlightAware ADS-B (CYYZ)
11:36PM 41.1111 -78.7091 282° West 418 481 32,000  Level FlightAware ADS-B (CYYZ)
11:37PM 41.1201 -78.7675 281° West 419 482 32,000  Level FlightAware ADS-B (KWWD)
11:37PM 41.1227 -78.7846 282° West 419 482 32,000  Level FlightAware ADS-B (CYYZ)
11:37PM 41.1313 -78.8410 281° West 419 482 32,000  Level FlightAware ADS-B (KWWD)
11:37PM 41.1342 -78.8602 282° West 419 482 32,000  Level FlightAware ADS-B (CYYZ)
11:38PM 41.1458 -78.9363 282° West 418 481 32,000  Level FlightAware ADS-B (CYYZ)
11:38PM 41.1572 -79.0112 282° West 418 481 32,000  Level FlightAware ADS-B (CYYZ)
11:39PM 41.1685 -79.0860 282° West 418 481 32,000  Level FlightAware ADS-B (CYYZ)
11:39PM 41.1799 -79.1619 282° West 416 479 32,000  Level FlightAware ADS-B (CYYZ)
11:40PM 41.1836 -79.1865 281° West 417 480 32,000  Level FlightAware ADS-B (KWWD)
11:40PM 41.1911 -79.2368 282° West 417 480 32,000  Level FlightAware ADS-B (CYYZ)
11:40PM 41.2025 -79.3137 282° West 417 480 32,000  Level FlightAware ADS-B (CYYZ)
11:41PM 41.2135 -79.3882 282° West 417 480 32,000  Level FlightAware ADS-B (CYYZ)
11:41PM 41.2246 -79.4634 282° West 418 481 32,000  Level FlightAware ADS-B (CYYZ)
11:42PM 41.2358 -79.5402 281° West 419 482 32,000  Level FlightAware ADS-B (CYYZ)
11:42PM 41.2369 -79.5473 281° West 420 483 32,000  Level FlightAware ADS-B (KWWD)
11:42PM 41.2470 -79.6157 281° West 420 483 32,000  Level FlightAware ADS-B (CYYZ)
11:43PM 41.2493 -79.6314 281° West 421 484 32,000  Level FlightAware ADS-B (CYKZ)
11:43PM 41.2582 -79.6923 281° West 420 483 32,000  Level FlightAware ADS-B (CYYZ)
11:43PM 41.2575 -79.6873 281° West 421 484 32,000  Level FlightAware ADS-B (CYKZ)
11:43PM 41.2689 -79.7655 281° West 420 483 32,000  Level FlightAware ADS-B (CYYZ)
11:44PM 41.2801 -79.8427 281° West 420 483 32,000  Level FlightAware ADS-B (CYYZ)
11:44PM 41.2813 -79.8513 281° West 421 484 32,000  Level FlightAware ADS-B (KAGC)
11:44PM 41.2914 -79.9214 281° West 420 483 32,000  Level FlightAware ADS-B (CYYZ)
11:45PM 41.3021 -79.9961 281° West 420 483 32,000  Level FlightAware ADS-B (CYYZ)
11:45PM 41.3131 -80.0735 281° West 420 483 32,000  Level FlightAware ADS-B (CYYZ)
11:46PM 41.3096 -80.0485 281° West 420 483 32,000  Level FlightAware ADS-B (KAGC)
11:46PM 41.3237 -80.1492 281° West 420 483 32,000  Level FlightAware ADS-B (CYYZ)
11:46PM 41.3246 -80.1553 281° West 420 483 32,000  Level FlightAware ADS-B (KAGC)
11:46PM 41.3341 -80.2234 281° West 419 482 32,000  Level FlightAware ADS-B (CYYZ)
11:47PM 41.3424 -80.2834 281° West 419 482 32,000  Level FlightAware ADS-B (CYYZ)
11:47PM 41.3518 -80.3521 281° West 419 482 32,000  Level FlightAware ADS-B (KAGC)
11:47PM 41.3553 -80.3770 281° West 419 482 32,000  Level FlightAware ADS-B (CYYZ)
11:48PM 41.3645 -80.4442 281° West 419 482 32,000  Level FlightAware ADS-B (CYYZ)
11:48PM 41.3674 -80.4656 280° West 420 483 32,000  Level FlightAware ADS-B (KAGC)
11:48PM 41.3724 -80.5022 281° West 419 482 32,000  Level FlightAware ADS-B (CYYZ)
11:49PM 41.3855 -80.5986 281° West 420 483 32,000  Level FlightAware ADS-B (CYYZ)
11:49PM 41.3929 -80.6536 281° West 419 482 32,000  Level FlightAware ADS-B (CYYZ)
11:50PM 41.4037 -80.7335 281° West 418 481 32,000  Level FlightAware ADS-B (CYYZ)
11:50PM 41.4166 -80.8312 281° West 417 480 32,000  Level FlightAware ADS-B (CYYZ)
11:50PM 41.3942 -80.6628 280° West 418 481 32,000  Level FlightAware ADS-B (CYKZ)
11:53PM 41.4590 -81.1546 280° West 418 481 32,000  Level FlightAware ADS-B (CYKZ)
11:53PM 41.4743 -81.2730 280° West 419 482 32,000  Level FlightAware ADS-B (CYKZ)
11:55PM 41.5048 -81.5112 280° West 419 482 32,000  Level FlightAware ADS-B (CYKZ)
12:00AM 41.5967 -82.2552 280° West 421 484 32,000  Level FlightAware ADS-B (CYYZ)
12:00AM 41.6059 -82.3317 280° West 422 486 32,000  Level FlightAware ADS-B (CYYZ)
12:01AM 41.6154 -82.4115 279° West 423 487 32,000  Level FlightAware ADS-B (CYYZ)
12:01AM 41.6217 -82.4644 279° West 423 487 32,000  Level FlightAware ADS-B (CYYZ)
12:02AM 41.6320 -82.5533 279° West 424 488 32,000  Level FlightAware ADS-B (CYYZ)
12:02AM 41.6425 -82.6400 279° West 425 489 32,000  Level Cleveland Center
12:03AM 41.6622 -82.8144 279° West 427 491 32,000  Level Cleveland Center
12:04AM 41.6803 -82.9731 279° West 429 494 32,000  Level Cleveland Center
12:05AM 41.6989 -83.1322 279° West 430 495 32,000  Level Cleveland Center
12:06AM 41.7161 -83.2925 278° West 430 495 32,000  Level Cleveland Center
12:12AM 41.8113 -84.1682 278° West 444 511 32,000  Level FlightAware ADS-B (KMDW)
12:13AM 41.8323 -84.3718 278° West 444 511 32,000  Level FlightAware ADS-B (KMDW)
12:13AM 41.8405 -84.4528 278° West 445 512 32,000  Level FlightAware ADS-B (KMDW)
12:14AM 41.8486 -84.5344 278° West 445 512 32,000  Level FlightAware ADS-B (KMDW)
12:14AM 41.8570 -84.6189 278° West 446 513 32,000  Level FlightAware ADS-B (KMDW)
12:15AM 41.8652 -84.7018 278° West 446 513 32,000  Level FlightAware ADS-B (KMDW)
12:16AM 41.8757 -84.8088 278° West 446 513 32,000  Level FlightAware ADS-B (KMDW)
12:16AM 41.8840 -84.8935 278° West 446 513 32,000  Level FlightAware ADS-B (KMDW)
12:17AM 41.8919 -84.9754 277° West 446 513 32,000  Level FlightAware ADS-B (KMDW)
12:17AM 41.8998 -85.0584 277° West 446 513 32,000  Level FlightAware ADS-B (KMDW)
12:18AM 41.9076 -85.1406 277° West 445 512 32,000  Level FlightAware ADS-B (KMDW)
12:18AM 41.9140 -85.2223 272° West 443 510 32,000  Level FlightAware ADS-B (KMDW)
12:19AM 41.9120 -85.3055 267° West 443 510 32,000  Level FlightAware ADS-B (KMDW)
12:19AM 41.9086 -85.3863 267° West 444 511 32,000  Level FlightAware ADS-B (KMDW)
12:20AM 41.9058 -85.4635 267° West 444 511 32,000  Level FlightAware ADS-B (KMDW)
12:20AM 41.9027 -85.5523 267° West 445 512 32,000  Level FlightAware ADS-B (KMDW)
12:21AM 41.8992 -85.6645 269° West 445 512 32,000  Level FlightAware ADS-B (KMDW)
12:21AM 41.9005 -85.7465 273° West 446 513 32,000  Level FlightAware ADS-B (KMDW)
12:22AM 41.9058 -85.8282 276° West 446 513 32,000  Level FlightAware ADS-B (KMDW)
12:22AM 41.9141 -85.9146 278° West 446 513 32,000  Level FlightAware ADS-B (KMDW)
12:23AM 41.9229 -85.9975 278° West 447 514 32,000  Level FlightAware ADS-B (KMDW)
12:23AM 41.9346 -86.1069 278° West 446 513 32,000  Level FlightAware ADS-B (KMDW)
12:24AM 41.9434 -86.1903 278° West 445 512 32,000  Level FlightAware ADS-B (KMDW)
12:25AM 41.9520 -86.2725 278° West 444 511 32,000  Level FlightAware ADS-B (KMDW)
12:25AM 41.9603 -86.3525 278° West 444 511 32,000  Level FlightAware ADS-B (KMDW)
12:26AM 41.9690 -86.4362 278° West 444 511 32,000  Level FlightAware ADS-B (KMDW)
12:26AM 41.9774 -86.5179 278° West 445 512 32,000  Level FlightAware ADS-B (KMDW)
12:27AM 41.9859 -86.6013 278° West 446 513 32,000 -120 Level FlightAware ADS-B (KMDW)
12:27AM 41.9921 -86.6635 278° West 447 514 31,900 -1,080 Descending FlightAware ADS-B (KPWK)
12:28AM 42.0052 -86.7945 278° West 452 520 30,800 -1,680 Descending FlightAware ADS-B (KMDW)
12:28AM 42.0134 -86.8768 278° West 453 521 30,000 -1,500 Descending FlightAware ADS-B (KMDW)
12:29AM 42.0218 -86.9618 277° West 448 516 29,300 -1,440 Descending FlightAware ADS-B (KMDW)
12:29AM 42.0298 -87.0440 277° West 445 512 28,600 -1,020 Descending FlightAware ADS-B (KMDW)
12:30AM 42.0375 -87.1252 277° West 438 504 28,300 -600 Descending FlightAware ADS-B (KMDW)
12:30AM 42.0453 -87.2063 277° West 432 497 28,000 -720 Descending FlightAware ADS-B (KMDW)
12:31AM 42.0529 -87.2861 277° West 424 488 27,600 -1,500 Descending FlightAware ADS-B (KMDW)
12:31AM 42.0621 -87.3850 277° West 417 480 26,300 -1,680 Descending FlightAware ADS-B (KMDW)
12:32AM 42.0695 -87.4639 277° West 411 473 25,700 -1,380 Descending FlightAware ADS-B (KMDW)
12:32AM 42.0770 -87.5437 277° West 402 463 24,900 -1,560 Descending FlightAware ADS-B (KMDW)
12:33AM 42.0839 -87.6187 277° West 403 464 24,100 -1,080 Descending FlightAware ADS-B (KMDW)
12:33AM 42.0906 -87.6917 277° West 396 456 23,800 -1,500 Descending FlightAware ADS-B (KORD)
12:34AM 42.0995 -87.7904 277° West 389 448 22,400 -2,820 Descending FlightAware ADS-B (KMDW)
12:35AM 42.1083 -87.8879 277° West 388 447 20,300 -3,060 Descending FlightAware ADS-B (KMDW)
12:35AM 42.1149 -87.9604 277° West 385 443 18,800 -2,700 Descending FlightAware ADS-B (KMDW)
12:36AM 42.1212 -88.0305 277° West 374 430 17,600 -2,820 Descending FlightAware ADS-B (KMDW)
12:36AM 42.1273 -88.0996 277° West 373 429 16,000 -3,120 Descending FlightAware ADS-B (KMDW)
12:37AM 42.1355 -88.1932 277° West 367 422 14,000 -3,000 Descending FlightAware ADS-B (KMDW)
12:37AM 42.1414 -88.2614 277° West 368 423 12,500 -2,040 Descending FlightAware ADS-B (KMDW)
12:38AM 42.1474 -88.3303 277° West 373 429 12,000 -540 Descending FlightAware ADS-B (KMDW)
12:38AM 42.1535 -88.4005 277° West 370 426 12,000 -1,200 Level FlightAware ADS-B (KMDW)
12:39AM 42.1610 -88.4892 277° West 360 414 10,600 -1,740 Descending FlightAware ADS-B (KMDW)
12:40AM 42.1666 -88.5561 276° West 335 386 10,000 -840 Descending FlightAware ADS-B (KMDW)
12:40AM 42.1691 -88.5856 276° West 314 361 10,000 -240 Level FlightAware ADS-B (KPWK)
12:40AM 42.1716 -88.6146 277° West 294 338 9,900 -900 Descending FlightAware ADS-B (KMDW)
12:40AM 42.1745 -88.6478 277° West 270 311 9,500 -1,800 Descending FlightAware ADS-B (KMDW)
12:41AM 42.1777 -88.6823 279° West 268 308 8,700 -2,760 Descending FlightAware ADS-B (KMDW)
12:41AM 42.1815 -88.7023 287° West 268 308 7,800 -2,940 Descending FlightAware ADS-B (KPWK)
12:41AM 42.1926 -88.7387 296° West 272 313 6,900 -2,940 Descending FlightAware ADS-B (KPWK)
12:42AM 42.2046 -88.7721 295° West 275 316 5,700 -2,880 Descending FlightAware ADS-B (KMDW)
12:42AM 42.2163 -88.8051 295° West 272 313 4,900 -2,160 Descending FlightAware ADS-B (KMDW)
12:42AM 42.2242 -88.8273 296° West 262 302 4,500 -1,200 Descending FlightAware ADS-B (KPWK)
12:43AM 42.2218 -88.8205 296° West 259 298 4,300 -1,140 Descending FlightAware ADS-B (KMDW)
12:44AM 42.2526 -88.9408 248° West 212 244 2,900 -1,020 Descending FlightAware ADS-B (KMDW)
12:44AM 42.2428 -88.9722 248° West 228 262 2,600 -720 Descending Chicago Center
12:45AM 42.2247 -89.0203 243° Southwest 155 178 1,800 -660 Descending Chicago Center
12:46AM 42.2108 -89.0592 244° Southwest 137 158 1,300 -480 Descending Chicago Center
12:47AM 42.1925 -89.1067 242° Southwest 135 155 900 -420 Descending Chicago Center